createdAt,value
2023-05-20T00:00:27.116Z,2.65
2023-05-20T00:01:29.596Z,2.15
2023-05-20T00:02:32.090Z,2.80
2023-05-20T00:03:35.237Z,2.33
2023-05-20T00:04:38.260Z,2.70
2023-05-20T00:05:41.067Z,2.40
2023-05-20T00:06:43.690Z,2.13
2023-05-20T00:07:46.155Z,2.60
2023-05-20T00:08:48.575Z,2.38
2023-05-20T00:09:51.340Z,2.55
2023-05-20T00:10:54.118Z,2.35
2023-05-20T00:11:56.816Z,2.20
2023-05-20T00:12:59.238Z,2.28
2023-05-20T00:14:02.011Z,2.85
2023-05-20T00:15:05.753Z,2.15
2023-05-20T00:16:08.470Z,2.22
2023-05-20T00:17:11.133Z,2.20
2023-05-20T00:18:14.069Z,2.10
2023-05-20T00:19:16.756Z,1.85
2023-05-20T00:20:20.014Z,2.30
2023-05-20T00:21:22.800Z,2.25
2023-05-20T00:22:25.370Z,2.00
2023-05-20T00:23:28.005Z,2.42
2023-05-20T00:24:30.452Z,2.35
2023-05-20T00:25:33.127Z,2.60
2023-05-20T00:26:36.454Z,2.00
2023-05-20T00:27:38.868Z,2.00
2023-05-20T00:28:42.105Z,2.03
2023-05-20T00:29:44.481Z,1.90
2023-05-20T00:30:47.105Z,2.22
2023-05-20T00:31:49.633Z,2.08
2023-05-20T00:32:52.085Z,1.92
2023-05-20T00:33:55.897Z,2.22
2023-05-20T00:35:00.888Z,1.85
2023-05-20T00:36:03.548Z,2.13
2023-05-20T00:37:06.189Z,2.40
2023-05-20T00:38:08.671Z,1.90
2023-05-20T00:39:11.227Z,2.03
2023-05-20T00:40:15.727Z,1.90
2023-05-20T00:41:19.200Z,2.30
2023-05-20T00:42:25.495Z,2.03
2023-05-20T00:43:28.049Z,1.88
2023-05-20T00:44:31.210Z,1.90
2023-05-20T00:45:33.986Z,2.00
2023-05-20T00:46:37.281Z,1.70
2023-05-20T00:47:40.091Z,1.85
2023-05-20T00:48:44.583Z,1.90
2023-05-20T00:49:50.951Z,1.58
2023-05-20T00:50:54.874Z,1.85
2023-05-20T00:51:57.290Z,1.83
2023-05-20T00:52:59.934Z,1.60
2023-05-20T00:54:03.768Z,2.08
2023-05-20T00:55:06.505Z,2.08
2023-05-20T00:56:09.205Z,1.95
2023-05-20T00:57:12.596Z,1.75
2023-05-20T00:58:15.351Z,2.00
2023-05-20T00:59:18.056Z,1.95
2023-05-20T01:00:20.804Z,1.92
2023-05-20T01:01:23.370Z,1.80
2023-05-20T01:02:26.213Z,1.85
2023-05-20T01:03:29.862Z,1.83
2023-05-20T01:04:33.881Z,2.08
2023-05-20T01:05:37.664Z,1.77
2023-05-20T01:06:41.232Z,1.65
2023-05-20T01:07:43.847Z,1.63
2023-05-20T01:08:47.076Z,25.45
2023-05-20T01:09:49.566Z,57.97
2023-05-20T01:11:06.470Z,65.45
2023-05-20T01:12:20.766Z,48.08
2023-05-20T01:13:27.359Z,39.47
2023-05-20T01:14:36.131Z,29.40
2023-05-20T01:15:42.204Z,23.80
2023-05-20T01:16:48.129Z,18.02
2023-05-20T01:17:53.044Z,13.30
2023-05-20T01:18:57.414Z,9.60
2023-05-20T01:20:01.809Z,15.52
2023-05-20T01:21:07.893Z,11.52
2023-05-20T01:22:14.619Z,9.68
2023-05-20T01:23:18.658Z,7.97
2023-05-20T01:24:21.134Z,6.00
2023-05-20T01:25:25.252Z,4.75
2023-05-20T01:26:27.797Z,3.85
2023-05-20T01:27:30.391Z,3.75
2023-05-20T01:28:36.909Z,3.60
2023-05-20T01:29:44.206Z,4.45
2023-05-20T01:30:52.439Z,4.13
2023-05-20T01:31:57.440Z,3.78
2023-05-20T01:33:07.573Z,3.50
2023-05-20T01:34:10.694Z,3.92
2023-05-20T01:35:16.028Z,3.13
2023-05-20T01:36:21.193Z,17.42
2023-05-20T01:37:25.421Z,33.28
2023-05-20T01:38:28.656Z,33.97
2023-05-20T01:39:32.072Z,24.85
2023-05-20T01:40:35.117Z,22.13
2023-05-20T01:41:38.181Z,16.33
2023-05-20T01:42:43.127Z,11.45
2023-05-20T01:43:45.726Z,9.38
2023-05-20T01:44:48.898Z,7.90
2023-05-20T01:45:52.199Z,6.55
2023-05-20T01:46:54.677Z,5.65
2023-05-20T01:47:57.152Z,5.40
2023-05-20T01:49:00.747Z,5.30
2023-05-20T01:50:04.292Z,4.32
2023-05-20T01:51:06.820Z,3.90
2023-05-20T01:52:10.310Z,4.45
2023-05-20T01:53:13.389Z,4.10
2023-05-20T01:54:17.406Z,3.85
2023-05-20T01:55:19.986Z,3.50
2023-05-20T01:56:23.213Z,3.53
2023-05-20T01:57:28.413Z,3.17
2023-05-20T01:58:31.453Z,3.83
2023-05-20T01:59:34.139Z,3.22
2023-05-20T02:00:36.960Z,3.55
2023-05-20T02:01:39.824Z,3.67
2023-05-20T02:02:42.416Z,3.35
2023-05-20T02:03:47.420Z,3.35
2023-05-20T02:04:51.373Z,4.03
2023-05-20T02:05:53.832Z,3.50
2023-05-20T02:06:58.485Z,3.50
2023-05-20T02:08:01.349Z,3.30
2023-05-20T02:09:04.010Z,3.42
2023-05-20T02:10:07.467Z,3.35
2023-05-20T02:11:10.206Z,3.50
2023-05-20T02:12:16.767Z,3.58
2023-05-20T02:13:19.515Z,3.90
2023-05-20T02:14:22.110Z,3.05
2023-05-20T02:15:24.585Z,3.22
2023-05-20T02:16:27.109Z,2.92
2023-05-20T02:17:29.736Z,3.35
2023-05-20T02:18:35.268Z,2.85
2023-05-20T02:19:37.813Z,2.92
2023-05-20T02:20:41.353Z,3.28
2023-05-20T02:21:45.606Z,3.22
2023-05-20T02:22:49.217Z,3.17
2023-05-20T02:23:52.338Z,3.30
2023-05-20T02:24:54.705Z,3.58
2023-05-20T02:25:57.517Z,3.33
2023-05-20T02:27:00.187Z,2.65
2023-05-20T02:28:05.805Z,3.22
2023-05-20T02:29:08.810Z,3.42
2023-05-20T02:30:11.554Z,3.33
2023-05-20T02:31:14.052Z,3.70
2023-05-20T02:32:16.515Z,3.25
2023-05-20T02:33:20.538Z,3.38
2023-05-20T02:34:25.921Z,3.25
2023-05-20T02:35:28.446Z,3.35
2023-05-20T02:36:32.318Z,4.32
2023-05-20T02:37:34.731Z,10.35
2023-05-20T02:38:37.155Z,14.10
2023-05-20T02:39:39.587Z,14.07
2023-05-20T02:40:44.987Z,10.88
2023-05-20T02:41:47.381Z,9.13
2023-05-20T02:42:50.928Z,8.32
2023-05-20T02:43:54.282Z,6.22
2023-05-20T02:44:58.752Z,4.93
2023-05-20T02:46:01.224Z,3.90
2023-05-20T02:47:03.920Z,3.60
2023-05-20T02:48:06.881Z,3.38
2023-05-20T02:49:09.573Z,3.28
2023-05-20T02:50:12.044Z,3.25
2023-05-20T02:51:14.592Z,2.90
2023-05-20T02:52:17.718Z,3.05
2023-05-20T02:53:21.039Z,2.88
2023-05-20T02:54:23.765Z,3.10
2023-05-20T02:55:26.223Z,2.65
2023-05-20T02:56:29.028Z,2.67
2023-05-20T02:57:31.520Z,2.35
2023-05-20T02:58:37.874Z,2.85
2023-05-20T02:59:41.097Z,3.10
2023-05-20T03:00:43.682Z,3.15
2023-05-20T03:01:46.999Z,14.15
2023-05-20T03:02:49.593Z,10.90
2023-05-20T03:03:52.525Z,12.65
2023-05-20T03:04:55.666Z,10.15
2023-05-20T03:05:58.177Z,10.30
2023-05-20T03:07:01.001Z,9.25
2023-05-20T03:08:14.932Z,7.45
2023-05-20T03:09:18.683Z,6.15
2023-05-20T03:10:21.466Z,6.47
2023-05-20T03:11:23.893Z,6.18
2023-05-20T03:12:26.815Z,6.03
2023-05-20T03:13:29.239Z,4.75
2023-05-20T03:14:33.884Z,5.18
2023-05-20T03:15:40.345Z,5.18
2023-05-20T03:16:44.367Z,4.75
2023-05-20T03:17:48.178Z,5.03
2023-05-20T03:18:50.772Z,4.47
2023-05-20T03:19:53.273Z,4.57
2023-05-20T03:20:55.729Z,4.32
2023-05-20T03:21:58.697Z,5.05
2023-05-20T03:23:02.130Z,4.82
2023-05-20T03:24:05.063Z,3.97
2023-05-20T03:25:08.113Z,3.70
2023-05-20T03:26:10.732Z,4.10
2023-05-20T03:27:13.450Z,3.90
2023-05-20T03:28:16.562Z,3.85
2023-05-20T03:29:19.510Z,3.95
2023-05-20T03:30:22.455Z,3.72
2023-05-20T03:31:27.487Z,3.20
2023-05-20T03:32:30.945Z,3.30
2023-05-20T03:33:36.870Z,3.63
2023-05-20T03:34:39.650Z,3.03
2023-05-20T03:35:42.428Z,3.40
2023-05-20T03:36:45.193Z,3.80
2023-05-20T03:37:47.805Z,3.70
2023-05-20T03:38:53.781Z,4.03
2023-05-20T03:39:56.248Z,7.03
2023-05-20T03:40:59.382Z,9.70
2023-05-20T03:42:01.977Z,9.43
2023-05-20T03:43:04.735Z,10.60
2023-05-20T03:44:07.250Z,11.20
2023-05-20T03:45:10.097Z,10.77
2023-05-20T03:46:20.187Z,8.23
2023-05-20T03:47:25.311Z,6.80
2023-05-20T03:48:28.778Z,6.45
2023-05-20T03:49:31.868Z,6.22
2023-05-20T03:50:37.986Z,4.82
2023-05-20T03:51:40.692Z,4.85
2023-05-20T03:52:49.964Z,4.30
2023-05-20T03:53:55.695Z,4.18
2023-05-20T03:54:58.292Z,3.47
2023-05-20T03:56:01.408Z,3.97
2023-05-20T03:57:04.489Z,3.50
2023-05-20T03:58:06.908Z,3.65
2023-05-20T03:59:10.099Z,4.15
2023-05-20T04:00:15.537Z,3.75
2023-05-20T04:01:21.246Z,4.05
2023-05-20T04:02:23.834Z,4.15
2023-05-20T04:03:28.757Z,3.80
2023-05-20T04:04:32.367Z,3.72
2023-05-20T04:05:37.103Z,3.45
2023-05-20T04:06:46.333Z,3.72
2023-05-20T04:07:49.794Z,3.20
2023-05-20T04:08:54.593Z,3.55
2023-05-20T04:09:59.423Z,3.40
2023-05-20T04:11:02.381Z,3.70
2023-05-20T04:12:06.227Z,3.63
2023-05-20T04:13:11.159Z,3.15
2023-05-20T04:14:13.673Z,3.05
2023-05-20T04:15:16.828Z,2.78
2023-05-20T04:16:30.076Z,3.00
2023-05-20T04:17:33.056Z,2.97
2023-05-20T04:18:39.158Z,3.13
2023-05-20T04:19:42.027Z,3.22
2023-05-20T04:20:45.732Z,2.67
2023-05-20T04:21:50.968Z,2.55
2023-05-20T04:22:54.376Z,2.60
2023-05-20T04:23:57.365Z,2.80
2023-05-20T04:25:00.314Z,2.40
2023-05-20T04:26:02.912Z,2.92
2023-05-20T04:27:07.799Z,2.60
2023-05-20T04:28:10.762Z,2.75
2023-05-20T04:29:13.341Z,2.70
2023-05-20T04:30:19.886Z,3.05
2023-05-20T04:31:27.034Z,3.28
2023-05-20T04:32:30.258Z,2.75
2023-05-20T04:33:37.797Z,2.60
2023-05-20T04:34:41.170Z,2.75
2023-05-20T04:35:46.242Z,2.78
2023-05-20T04:36:49.055Z,3.30
2023-05-20T04:37:54.304Z,2.70
2023-05-20T04:38:57.561Z,2.95
2023-05-20T04:40:03.233Z,2.80
2023-05-20T04:41:07.092Z,2.65
2023-05-20T04:42:09.987Z,2.30
2023-05-20T04:43:14.949Z,2.47
2023-05-20T04:44:17.413Z,2.85
2023-05-20T04:45:20.729Z,2.10
2023-05-20T04:46:23.245Z,2.30
2023-05-20T04:47:26.645Z,2.55
2023-05-20T04:48:29.131Z,2.50
2023-05-20T04:49:32.465Z,2.58
2023-05-20T04:50:36.996Z,2.63
2023-05-20T04:51:42.043Z,2.65
2023-05-20T04:52:45.440Z,2.28
2023-05-20T04:53:48.181Z,2.30
2023-05-20T04:54:51.924Z,2.55
2023-05-20T04:55:57.130Z,2.47
2023-05-20T04:57:01.465Z,2.15
2023-05-20T04:58:05.807Z,2.63
2023-05-20T04:59:09.641Z,2.65
2023-05-20T05:00:13.323Z,2.28
2023-05-20T05:01:16.560Z,2.63
2023-05-20T05:02:19.066Z,2.30
2023-05-20T05:03:21.611Z,2.53
2023-05-20T05:04:24.872Z,2.50
2023-05-20T05:05:27.334Z,2.45
2023-05-20T05:06:30.861Z,2.65
2023-05-20T05:07:34.750Z,2.35
2023-05-20T05:08:37.239Z,2.75
2023-05-20T05:09:39.637Z,2.40
2023-05-20T05:10:42.212Z,2.17
2023-05-20T05:11:45.678Z,2.30
2023-05-20T05:12:48.405Z,2.50
2023-05-20T05:13:52.603Z,1.80
2023-05-20T05:14:58.802Z,2.28
2023-05-20T05:16:02.560Z,2.03
2023-05-20T05:17:07.034Z,2.22
2023-05-20T05:18:09.665Z,2.60
2023-05-20T05:19:13.665Z,3.55
2023-05-20T05:20:16.542Z,3.55
2023-05-20T05:21:20.288Z,4.07
2023-05-20T05:22:23.832Z,4.15
2023-05-20T05:23:27.056Z,3.88
2023-05-20T05:24:29.958Z,4.68
2023-05-20T05:25:33.386Z,4.50
2023-05-20T05:26:35.924Z,3.75
2023-05-20T05:27:39.688Z,2.60
2023-05-20T05:28:43.489Z,3.13
2023-05-20T05:29:46.720Z,3.20
2023-05-20T05:30:49.310Z,2.85
2023-05-20T05:31:52.531Z,2.83
2023-05-20T05:32:55.112Z,2.90
2023-05-20T05:33:58.564Z,3.20
2023-05-20T05:35:01.158Z,2.03
2023-05-20T05:36:05.524Z,2.05
2023-05-20T05:37:08.626Z,2.47
2023-05-20T05:38:11.270Z,2.20
2023-05-20T05:39:13.717Z,2.50
2023-05-20T05:40:16.359Z,2.30
2023-05-20T05:41:19.005Z,2.28
2023-05-20T05:42:21.483Z,2.05
2023-05-20T05:43:24.260Z,1.90
2023-05-20T05:44:28.441Z,2.00
2023-05-20T05:45:31.285Z,2.08
2023-05-20T05:46:34.935Z,2.13
2023-05-20T05:47:37.529Z,2.00
2023-05-20T05:48:40.066Z,1.73
2023-05-20T05:49:43.579Z,1.80
2023-05-20T05:50:46.640Z,2.20
2023-05-20T05:51:51.634Z,2.10
2023-05-20T05:52:54.750Z,2.08
2023-05-20T05:53:57.452Z,1.33
2023-05-20T05:55:00.136Z,3.60
2023-05-20T05:56:02.769Z,6.47
2023-05-20T05:57:06.607Z,12.80
2023-05-20T05:58:10.219Z,17.88
2023-05-20T05:59:13.129Z,19.80
2023-05-20T06:00:16.768Z,19.92
2023-05-20T06:01:22.216Z,18.75
2023-05-20T06:02:25.771Z,17.70
2023-05-20T06:03:30.121Z,16.98
2023-05-20T06:04:32.791Z,16.48
2023-05-20T06:05:35.646Z,15.50
2023-05-20T06:06:38.753Z,14.63
2023-05-20T06:07:41.187Z,13.40
2023-05-20T06:08:43.628Z,12.57
2023-05-20T06:09:47.892Z,13.57
2023-05-20T06:10:51.068Z,12.60
2023-05-20T06:11:53.523Z,12.00
2023-05-20T06:12:56.293Z,11.63
2023-05-20T06:14:00.110Z,12.05
2023-05-20T06:15:08.188Z,11.88
2023-05-20T06:16:11.884Z,11.48
2023-05-20T06:17:14.589Z,12.15
2023-05-20T06:18:17.731Z,11.88
2023-05-20T06:19:20.445Z,12.32
2023-05-20T06:20:22.915Z,11.48
2023-05-20T06:21:25.927Z,11.48
2023-05-20T06:22:28.779Z,11.10
2023-05-20T06:23:31.489Z,10.38
2023-05-20T06:24:36.661Z,10.65
2023-05-20T06:25:39.268Z,10.27
2023-05-20T06:26:42.892Z,10.63
2023-05-20T06:27:45.438Z,10.18
2023-05-20T06:28:51.730Z,10.45
2023-05-20T06:29:54.206Z,10.30
2023-05-20T06:30:57.544Z,9.45
2023-05-20T06:32:01.849Z,7.78
2023-05-20T06:33:04.717Z,7.85
2023-05-20T06:34:07.349Z,9.00
2023-05-20T06:35:12.336Z,8.02
2023-05-20T06:36:15.030Z,7.97
2023-05-20T06:37:17.455Z,6.35
2023-05-20T06:38:20.516Z,7.30
2023-05-20T06:39:23.011Z,7.35
2023-05-20T06:40:27.290Z,7.93
2023-05-20T06:41:33.608Z,8.95
2023-05-20T06:42:44.282Z,8.40
2023-05-20T06:43:50.494Z,9.38
2023-05-20T06:45:13.976Z,9.40
2023-05-20T06:46:25.945Z,9.20
2023-05-20T06:47:36.878Z,9.23
2023-05-20T06:48:40.386Z,8.80
2023-05-20T06:49:47.170Z,8.80
2023-05-20T06:50:50.975Z,8.52
2023-05-20T06:51:53.828Z,9.10
2023-05-20T06:52:56.422Z,9.45
2023-05-20T06:53:58.854Z,8.93
2023-05-20T06:55:01.368Z,9.05
2023-05-20T06:56:03.958Z,8.93
2023-05-20T06:57:08.988Z,9.18
2023-05-20T06:58:12.372Z,8.73
2023-05-20T06:59:15.589Z,8.40
2023-05-20T07:00:19.060Z,8.80
2023-05-20T07:01:21.700Z,8.20
2023-05-20T07:02:25.253Z,7.95
2023-05-20T07:03:27.763Z,7.95
2023-05-20T07:04:31.102Z,9.25
2023-05-20T07:05:33.953Z,7.30
2023-05-20T07:06:36.704Z,8.00
2023-05-20T07:07:39.509Z,7.93
2023-05-20T07:08:42.444Z,7.38
2023-05-20T07:09:45.507Z,8.00
2023-05-20T07:10:48.672Z,8.32
2023-05-20T07:11:54.776Z,8.10
2023-05-20T07:12:57.288Z,8.18
2023-05-20T07:13:59.860Z,8.93
2023-05-20T07:15:03.337Z,8.23
2023-05-20T07:16:07.592Z,7.10
2023-05-20T07:17:13.349Z,8.77
2023-05-20T07:18:16.280Z,8.80
2023-05-20T07:19:20.223Z,8.18
2023-05-20T07:20:22.761Z,8.10
2023-05-20T07:21:25.650Z,9.68
2023-05-20T07:22:48.603Z,7.43
2023-05-20T07:23:56.939Z,8.05
2023-05-20T07:25:01.162Z,7.53
2023-05-20T07:26:03.929Z,8.02
2023-05-20T07:27:06.815Z,7.65
2023-05-20T07:28:09.250Z,8.38
2023-05-20T07:29:12.446Z,7.32
2023-05-20T07:30:15.116Z,7.68
2023-05-20T07:31:24.106Z,7.68
2023-05-20T07:32:26.568Z,7.75
2023-05-20T07:33:29.973Z,7.28
2023-05-20T07:34:33.346Z,7.43
2023-05-20T07:35:37.001Z,7.65
2023-05-20T07:36:41.143Z,7.15
2023-05-20T07:37:46.470Z,6.97
2023-05-20T07:39:01.417Z,6.43
2023-05-20T07:40:10.272Z,6.88
2023-05-20T07:41:14.525Z,6.93
2023-05-20T07:42:17.286Z,6.45
2023-05-20T07:43:22.846Z,7.00
2023-05-20T07:44:26.579Z,6.97
2023-05-20T07:45:29.550Z,6.95
2023-05-20T07:46:33.093Z,7.20
2023-05-20T07:47:36.651Z,7.38
2023-05-20T07:48:39.096Z,6.47
2023-05-20T07:49:41.927Z,6.63
2023-05-20T07:50:44.913Z,7.43
2023-05-20T07:51:48.017Z,7.00
2023-05-20T07:53:16.370Z,7.57
2023-05-20T07:54:19.984Z,7.82
2023-05-20T07:55:24.794Z,7.68
2023-05-20T07:56:28.386Z,7.50
2023-05-20T07:57:30.839Z,7.50
2023-05-20T07:58:33.758Z,8.05
2023-05-20T07:59:36.456Z,7.57
2023-05-20T08:00:38.932Z,7.57
2023-05-20T08:01:43.269Z,7.10
2023-05-20T08:02:47.253Z,6.60
2023-05-20T08:03:54.752Z,6.70
2023-05-20T08:04:59.398Z,7.10
2023-05-20T08:06:03.059Z,6.32
2023-05-20T08:07:06.159Z,6.38
2023-05-20T08:09:31.748Z,5.45
2023-05-20T08:10:34.194Z,5.13
2023-05-20T08:11:36.834Z,5.72
2023-05-20T08:12:39.857Z,5.82
2023-05-20T08:13:42.434Z,6.47
2023-05-20T08:14:45.352Z,6.32
2023-05-20T08:15:48.739Z,5.57
2023-05-20T08:16:53.872Z,5.07
2023-05-20T08:17:57.282Z,4.75
2023-05-20T08:19:00.022Z,5.40
2023-05-20T08:20:02.600Z,6.65
2023-05-20T08:21:08.191Z,5.78
2023-05-20T08:22:10.808Z,5.80
2023-05-20T08:23:13.400Z,5.10
2023-05-20T08:24:15.962Z,4.57
2023-05-20T08:25:20.059Z,5.43
2023-05-20T08:26:23.155Z,4.18
2023-05-20T08:27:26.520Z,5.13
2023-05-20T08:28:30.125Z,4.85
2023-05-20T08:29:33.510Z,4.65
2023-05-20T08:30:36.544Z,4.55
2023-05-20T08:31:38.960Z,4.68
2023-05-20T08:32:42.607Z,4.18
2023-05-20T08:33:46.491Z,4.32
2023-05-20T08:34:49.270Z,4.30
2023-05-20T08:35:52.240Z,4.55
2023-05-20T08:36:54.580Z,4.20
2023-05-20T08:37:57.016Z,5.47
2023-05-20T08:38:59.878Z,5.05
2023-05-20T08:40:05.897Z,4.40
2023-05-20T08:41:08.238Z,4.30
2023-05-20T08:42:13.763Z,4.00
2023-05-20T08:43:16.425Z,4.18
2023-05-20T08:44:20.816Z,4.80
2023-05-20T08:45:27.828Z,4.88
2023-05-20T08:46:35.801Z,4.47
2023-05-20T08:47:42.944Z,4.43
2023-05-20T08:48:45.848Z,4.25
2023-05-20T08:49:49.773Z,4.57
2023-05-20T08:50:53.382Z,4.00
2023-05-20T08:51:56.315Z,4.55
2023-05-20T08:52:59.917Z,4.82
2023-05-20T08:54:03.706Z,4.72
2023-05-20T08:55:09.579Z,4.28
2023-05-20T08:56:14.009Z,5.07
2023-05-20T08:57:16.449Z,4.80
2023-05-20T08:58:19.319Z,4.47
2023-05-20T08:59:22.013Z,4.47
2023-05-20T09:00:29.043Z,4.55
2023-05-20T09:01:32.564Z,4.45
2023-05-20T09:02:38.388Z,3.67
2023-05-20T09:03:40.853Z,3.83
2023-05-20T09:04:43.304Z,4.40
2023-05-20T09:05:46.381Z,3.85
2023-05-20T09:06:51.183Z,4.20
2023-05-20T09:07:53.614Z,4.28
2023-05-20T09:08:56.069Z,3.90
2023-05-20T09:09:58.973Z,4.10
2023-05-20T09:11:01.840Z,4.10
2023-05-20T09:12:05.531Z,4.40
2023-05-20T09:13:10.311Z,4.38
2023-05-20T09:14:16.215Z,4.18
2023-05-20T09:15:21.586Z,3.95
2023-05-20T09:16:26.812Z,5.05
2023-05-20T09:20:54.836Z,3.85
2023-05-20T09:21:58.157Z,3.72
2023-05-20T09:23:01.966Z,3.72
2023-05-20T09:24:04.690Z,3.88
2023-05-20T09:25:08.019Z,3.97
2023-05-20T09:26:10.812Z,4.05
2023-05-20T09:27:13.486Z,4.55
2023-05-20T09:28:16.294Z,4.40
2023-05-20T09:29:21.495Z,4.22
2023-05-20T09:30:24.610Z,3.85
2023-05-20T09:31:29.272Z,3.35
2023-05-20T09:32:31.662Z,2.95
2023-05-20T09:33:35.628Z,3.67
2023-05-20T09:34:38.800Z,3.80
2023-05-20T09:35:41.955Z,4.15
2023-05-20T09:36:45.299Z,3.63
2023-05-20T09:37:48.457Z,4.13
2023-05-20T09:38:53.554Z,3.60
2023-05-20T09:39:59.637Z,3.58
2023-05-20T09:41:07.991Z,3.13
2023-05-20T09:42:21.897Z,3.83
2023-05-20T09:43:24.364Z,3.38
2023-05-20T09:44:29.091Z,4.03
2023-05-20T09:45:31.688Z,3.95
2023-05-20T09:46:35.823Z,3.88
2023-05-20T09:47:40.916Z,3.92
2023-05-20T09:48:44.832Z,3.58
2023-05-20T09:49:47.317Z,3.25
2023-05-20T09:50:51.723Z,3.60
2023-05-20T09:51:54.694Z,4.15
2023-05-20T09:52:57.276Z,3.72
2023-05-20T09:54:00.490Z,3.80
2023-05-20T09:55:05.776Z,3.83
2023-05-20T09:56:08.467Z,3.53
2023-05-20T09:57:11.622Z,3.10
2023-05-20T09:58:16.259Z,3.55
2023-05-20T09:59:22.223Z,3.58
2023-05-20T10:00:24.559Z,3.67
2023-05-20T10:01:26.959Z,3.42
2023-05-20T10:02:29.807Z,2.92
2023-05-20T10:03:33.432Z,3.17
2023-05-20T10:04:42.745Z,3.33
2023-05-20T10:05:57.273Z,3.63
2023-05-20T10:07:37.905Z,4.20
2023-05-20T10:08:55.755Z,3.55
2023-05-20T10:10:14.581Z,3.38
2023-05-20T10:11:37.741Z,3.42
2023-05-20T10:12:53.072Z,3.95
2023-05-20T10:14:17.202Z,3.35
2023-05-20T10:15:39.140Z,4.20
2023-05-20T10:16:48.330Z,3.97
2023-05-20T10:18:14.782Z,5.80
2023-05-20T10:19:31.036Z,6.50
2023-05-20T10:20:44.300Z,5.70
2023-05-20T10:21:57.877Z,5.32
2023-05-20T10:23:00.235Z,5.63
2023-05-20T10:24:12.069Z,4.75
2023-05-20T10:25:26.813Z,4.10
2023-05-20T10:26:38.978Z,3.80
2023-05-20T10:27:48.323Z,3.22
2023-05-20T10:28:50.687Z,3.17
2023-05-20T10:29:57.656Z,3.40
2023-05-20T10:31:00.931Z,3.60
2023-05-20T10:32:04.067Z,2.90
2023-05-20T10:33:07.203Z,2.72
2023-05-20T10:34:22.201Z,2.17
2023-05-20T10:35:27.200Z,1.95
2023-05-20T10:36:31.895Z,2.10
2023-05-20T10:37:42.323Z,3.03
2023-05-20T10:38:58.804Z,2.70
2023-05-20T10:40:13.052Z,2.70
2023-05-20T10:41:21.562Z,2.95
2023-05-20T10:42:32.637Z,2.60
2023-05-20T10:43:35.095Z,2.60
2023-05-20T10:44:47.776Z,2.47
2023-05-20T10:45:55.486Z,2.60
2023-05-20T10:48:27.799Z,2.53
2023-05-20T10:49:35.256Z,2.40
2023-05-20T10:50:40.198Z,2.05
2023-05-20T10:51:45.029Z,2.55
2023-05-20T10:52:47.429Z,2.03
2023-05-20T10:53:54.227Z,2.15
2023-05-20T10:54:57.702Z,2.72
2023-05-20T10:56:00.141Z,2.38
2023-05-20T10:57:07.685Z,2.50
2023-05-20T10:58:10.221Z,2.70
2023-05-20T10:59:12.750Z,1.65
2023-05-20T11:00:16.629Z,2.50
2023-05-20T11:01:23.995Z,2.25
2023-05-20T11:02:28.432Z,2.22
2023-05-20T11:03:31.195Z,2.35
2023-05-20T11:04:33.765Z,2.42
2023-05-20T11:05:36.688Z,2.10
2023-05-20T11:06:39.040Z,2.47
2023-05-20T11:07:41.421Z,2.47
2023-05-20T11:08:44.631Z,2.42
2023-05-20T11:09:50.369Z,2.00
2023-05-20T11:10:52.774Z,2.03
2023-05-20T11:11:55.435Z,2.33
2023-05-20T11:12:58.120Z,2.47
2023-05-20T11:14:00.765Z,2.35
2023-05-20T11:15:03.547Z,2.10
2023-05-20T11:16:06.292Z,2.35
2023-05-20T11:17:08.672Z,2.85
2023-05-20T11:18:12.433Z,2.95
2023-05-20T11:19:16.471Z,2.88
2023-05-20T11:20:19.274Z,3.28
2023-05-20T11:21:21.633Z,2.10
2023-05-20T11:22:23.966Z,3.10
2023-05-20T11:23:27.924Z,3.90
2023-05-20T11:24:30.672Z,3.13
2023-05-20T11:25:33.518Z,3.28
2023-05-20T11:26:37.143Z,2.47
2023-05-20T11:27:40.430Z,1.73
2023-05-20T11:28:43.092Z,2.35
2023-05-20T11:29:45.658Z,2.67
2023-05-20T11:30:48.971Z,3.10
2023-05-20T11:31:51.949Z,2.88
2023-05-20T11:33:01.517Z,2.47
2023-05-20T11:34:04.194Z,2.75
2023-05-20T11:35:07.983Z,2.55
2023-05-20T11:36:23.893Z,2.88
2023-05-20T11:37:30.299Z,2.45
2023-05-20T11:38:32.682Z,2.55
2023-05-20T11:39:35.193Z,3.28
2023-05-20T11:40:49.978Z,2.50
2023-05-20T11:41:53.956Z,2.63
2023-05-20T11:42:59.718Z,2.78
2023-05-20T11:44:02.121Z,2.78
2023-05-20T11:45:05.059Z,2.88
2023-05-20T11:46:07.373Z,2.75
2023-05-20T11:47:09.839Z,2.60
2023-05-20T11:48:12.712Z,2.75
2023-05-20T11:49:16.094Z,2.67
2023-05-20T11:50:20.096Z,2.55
2023-05-20T11:51:25.642Z,2.35
2023-05-20T11:52:29.207Z,2.58
2023-05-20T11:53:32.073Z,2.53
2023-05-20T11:54:36.302Z,2.67
2023-05-20T11:55:50.045Z,2.45
2023-05-20T11:56:54.626Z,3.00
2023-05-20T11:57:58.193Z,2.70
2023-05-20T11:59:01.562Z,2.95
2023-05-20T12:00:07.375Z,2.83
2023-05-20T12:01:21.624Z,2.80
2023-05-20T12:02:24.921Z,2.38
2023-05-20T12:03:27.512Z,2.28
2023-05-20T12:04:29.941Z,2.55
2023-05-20T12:05:32.411Z,2.63
2023-05-20T12:06:35.149Z,2.40
2023-05-20T12:07:38.397Z,2.75
2023-05-20T12:08:40.774Z,2.97
2023-05-20T12:09:43.117Z,2.58
2023-05-20T12:10:45.378Z,2.70
2023-05-20T12:11:47.693Z,2.42
2023-05-20T12:12:49.985Z,2.30
2023-05-20T12:13:52.764Z,2.40
2023-05-20T12:14:55.115Z,2.22
2023-05-20T12:15:57.705Z,2.60
2023-05-20T12:17:00.151Z,2.70
2023-05-20T12:18:02.646Z,2.60
2023-05-20T12:19:05.447Z,2.13
2023-05-20T12:20:08.351Z,2.65
2023-05-20T12:21:10.845Z,2.45
2023-05-20T12:22:13.146Z,2.47
2023-05-20T12:23:15.648Z,2.58
2023-05-20T12:24:17.972Z,2.42
2023-05-20T12:25:21.489Z,2.70
2023-05-20T12:26:24.981Z,2.83
2023-05-20T12:27:27.299Z,2.80
2023-05-20T12:28:29.666Z,2.58
2023-05-20T12:29:32.792Z,2.47
2023-05-20T12:30:35.348Z,2.60
2023-05-20T12:31:38.129Z,2.75
2023-05-20T12:32:41.609Z,2.78
2023-05-20T12:33:44.761Z,3.30
2023-05-20T12:34:47.259Z,3.00
2023-05-20T12:35:50.034Z,3.28
2023-05-20T12:36:52.449Z,3.17
2023-05-20T12:37:54.985Z,3.30
2023-05-20T12:38:57.305Z,3.95
2023-05-20T12:40:00.747Z,4.25
2023-05-20T12:41:03.169Z,3.60
2023-05-20T12:42:05.736Z,3.13
2023-05-20T12:43:08.201Z,3.05
2023-05-20T12:44:10.858Z,3.33
2023-05-20T12:45:13.491Z,3.03
2023-05-20T12:46:15.974Z,2.55
2023-05-20T12:47:18.961Z,3.13
2023-05-20T12:48:21.385Z,2.95
2023-05-20T12:49:23.879Z,3.15
2023-05-20T12:50:27.650Z,2.97
2023-05-20T12:51:30.041Z,2.95
2023-05-20T12:52:32.488Z,2.47
2023-05-20T12:53:34.926Z,2.72
2023-05-20T12:54:37.330Z,2.70
2023-05-20T12:55:40.320Z,2.53
2023-05-20T12:56:42.731Z,2.30
2023-05-20T12:57:46.357Z,2.70
2023-05-20T12:58:49.000Z,2.80
2023-05-20T12:59:51.499Z,2.80
2023-05-20T13:00:53.974Z,2.80
2023-05-20T13:01:56.734Z,2.63
2023-05-20T13:02:59.293Z,2.47
2023-05-20T13:04:02.788Z,2.60
2023-05-20T13:05:06.601Z,2.97
2023-05-20T13:06:09.680Z,3.15
2023-05-20T13:07:13.221Z,2.95
2023-05-20T13:08:15.839Z,2.42
2023-05-20T13:09:18.375Z,2.60
2023-05-20T13:10:21.826Z,2.40
2023-05-20T13:11:24.573Z,2.60
2023-05-20T13:12:27.054Z,2.85
2023-05-20T13:13:29.381Z,3.33
2023-05-20T13:14:31.969Z,2.70
2023-05-20T13:15:34.761Z,2.78
2023-05-20T13:16:37.475Z,2.95
2023-05-20T13:17:41.417Z,2.88
2023-05-20T13:18:44.797Z,2.53
2023-05-20T13:19:47.188Z,4.13
2023-05-20T13:20:49.719Z,4.55
2023-05-20T13:21:54.506Z,4.25
2023-05-20T13:22:57.068Z,4.47
2023-05-20T13:24:00.995Z,4.00
2023-05-20T13:25:04.290Z,4.00
2023-05-20T13:26:06.760Z,4.15
2023-05-20T13:27:09.154Z,3.65
2023-05-20T13:28:16.589Z,3.70
2023-05-20T13:29:19.966Z,3.60
2023-05-20T13:30:22.400Z,4.00
2023-05-20T13:31:24.930Z,2.95
2023-05-20T13:32:27.744Z,3.40
2023-05-20T13:33:30.704Z,3.50
2023-05-20T13:34:33.167Z,3.63
2023-05-20T13:35:35.626Z,3.63
2023-05-20T13:36:38.074Z,3.10
2023-05-20T13:37:40.479Z,3.35
2023-05-20T13:38:42.895Z,2.90
2023-05-20T13:39:45.247Z,3.10
2023-05-20T13:40:48.884Z,2.85
2023-05-20T13:41:53.598Z,2.83
2023-05-20T13:42:56.362Z,2.75
2023-05-20T13:43:58.864Z,3.58
2023-05-20T13:45:01.246Z,3.47
2023-05-20T13:46:03.778Z,3.30
2023-05-20T13:47:06.184Z,3.92
2023-05-20T13:48:08.867Z,3.38
2023-05-20T13:49:11.350Z,3.65
2023-05-20T13:50:13.791Z,3.65
2023-05-20T13:51:16.437Z,3.78
2023-05-20T13:52:19.677Z,3.28
2023-05-20T13:53:22.459Z,3.80
2023-05-20T13:54:25.033Z,3.83
2023-05-20T13:55:28.484Z,3.45
2023-05-20T13:56:32.001Z,3.45
2023-05-20T13:57:34.661Z,3.38
2023-05-20T13:58:37.423Z,3.25
2023-05-20T13:59:39.859Z,3.10
2023-05-20T14:00:42.237Z,3.40
2023-05-20T14:01:45.529Z,3.20
2023-05-20T14:02:48.761Z,3.28
2023-05-20T14:03:51.552Z,3.28
2023-05-20T14:04:53.913Z,3.33
2023-05-20T14:05:56.426Z,3.30
2023-05-20T14:07:00.377Z,3.72
2023-05-20T14:08:03.114Z,3.03
2023-05-20T14:09:07.117Z,3.20
2023-05-20T14:10:09.686Z,3.13
2023-05-20T14:11:12.587Z,3.40
2023-05-20T14:12:15.024Z,3.65
2023-05-20T14:13:17.472Z,2.80
2023-05-20T14:14:19.830Z,2.47
2023-05-20T14:15:22.234Z,2.50
2023-05-20T14:16:24.685Z,2.55
2023-05-20T14:17:27.784Z,3.03